<?xml version="1.0" encoding="UTF-8" standalone="no" ?>
<gpx version="1.1" creator="Visorando" xmlns:xsi="http://www.w3.org/2001/XMLSchema-instance" xmlns="http://www.topografix.com/GPX/1/1" xsi:schemaLocation="http://www.topografix.com/GPX/1/1 http://www.topografix.com/GPX/1/1/gpx.xsd">
 <metadata>
  <name>Walk of Sat 27 Nov 2021 16:24:30 CET</name>
  <link href="https://www.visorando.co.uk/walk-/17499643">
  <text>https://www.visorando.co.uk/walk-/17499643</text></link>
 </metadata>
 <trk>
  <name>Walk of Sat 27 Nov 2021 16:24:30 CET</name>
  <trkseg>
   <trkpt lat="57.939765" lon="-4.784796">
    <ele>165</ele>
    <time>2021-11-27T16:39:28+01:00</time>
   </trkpt>
   <trkpt lat="57.939727" lon="-4.781187">
    <ele>177</ele>
    <time>2021-11-27T16:39:33+01:00</time>
   </trkpt>
   <trkpt lat="57.942064" lon="-4.767833">
    <ele>166</ele>
    <time>2021-11-27T16:39:38+01:00</time>
   </trkpt>
   <trkpt lat="57.940972" lon="-4.763486">
    <ele>170</ele>
    <time>2021-11-27T16:39:43+01:00</time>
   </trkpt>
   <trkpt lat="57.940886" lon="-4.761931">
    <ele>169</ele>
    <time>2021-11-27T16:39:48+01:00</time>
   </trkpt>
   <trkpt lat="57.940509" lon="-4.760532">
    <ele>169</ele>
    <time>2021-11-27T16:39:53+01:00</time>
   </trkpt>
   <trkpt lat="57.939880" lon="-4.757656">
    <ele>164</ele>
    <time>2021-11-27T16:39:58+01:00</time>
   </trkpt>
   <trkpt lat="57.938929" lon="-4.756996">
    <ele>171</ele>
    <time>2021-11-27T16:40:03+01:00</time>
   </trkpt>
   <trkpt lat="57.938764" lon="-4.755651">
    <ele>173</ele>
    <time>2021-11-27T16:40:08+01:00</time>
   </trkpt>
   <trkpt lat="57.938309" lon="-4.754696">
    <ele>178</ele>
    <time>2021-11-27T16:40:13+01:00</time>
   </trkpt>
   <trkpt lat="57.937896" lon="-4.751701">
    <ele>182</ele>
    <time>2021-11-27T16:40:18+01:00</time>
   </trkpt>
   <trkpt lat="57.937773" lon="-4.748705">
    <ele>183</ele>
    <time>2021-11-27T16:40:23+01:00</time>
   </trkpt>
   <trkpt lat="57.938693" lon="-4.746323">
    <ele>188</ele>
    <time>2021-11-27T16:40:28+01:00</time>
   </trkpt>
   <trkpt lat="57.938922" lon="-4.741559">
    <ele>204</ele>
    <time>2021-11-27T16:40:33+01:00</time>
   </trkpt>
   <trkpt lat="57.938348" lon="-4.739755">
    <ele>212</ele>
    <time>2021-11-27T16:40:38+01:00</time>
   </trkpt>
   <trkpt lat="57.936976" lon="-4.737473">
    <ele>218</ele>
    <time>2021-11-27T16:40:43+01:00</time>
   </trkpt>
   <trkpt lat="57.935314" lon="-4.735738">
    <ele>224</ele>
    <time>2021-11-27T16:40:48+01:00</time>
   </trkpt>
   <trkpt lat="57.932487" lon="-4.730238">
    <ele>226</ele>
    <time>2021-11-27T16:40:53+01:00</time>
   </trkpt>
   <trkpt lat="57.931687" lon="-4.729126">
    <ele>219</ele>
    <time>2021-11-27T16:40:58+01:00</time>
   </trkpt>
   <trkpt lat="57.931135" lon="-4.727546">
    <ele>214</ele>
    <time>2021-11-27T16:41:03+01:00</time>
   </trkpt>
   <trkpt lat="57.930584" lon="-4.726356">
    <ele>213</ele>
    <time>2021-11-27T16:41:08+01:00</time>
   </trkpt>
   <trkpt lat="57.929618" lon="-4.725323">
    <ele>210</ele>
    <time>2021-11-27T16:41:13+01:00</time>
   </trkpt>
   <trkpt lat="57.927081" lon="-4.719472">
    <ele>186</ele>
    <time>2021-11-27T16:41:18+01:00</time>
   </trkpt>
   <trkpt lat="57.925439" lon="-4.717095">
    <ele>170</ele>
    <time>2021-11-27T16:41:23+01:00</time>
   </trkpt>
   <trkpt lat="57.924590" lon="-4.713598">
    <ele>161</ele>
    <time>2021-11-27T16:41:28+01:00</time>
   </trkpt>
   <trkpt lat="57.924876" lon="-4.706355">
    <ele>158</ele>
    <time>2021-11-27T16:41:33+01:00</time>
   </trkpt>
   <trkpt lat="57.925327" lon="-4.704528">
    <ele>163</ele>
    <time>2021-11-27T16:41:38+01:00</time>
   </trkpt>
   <trkpt lat="57.924985" lon="-4.702951">
    <ele>158</ele>
    <time>2021-11-27T16:41:43+01:00</time>
   </trkpt>
   <trkpt lat="57.924566" lon="-4.699671">
    <ele>154</ele>
    <time>2021-11-27T16:41:48+01:00</time>
   </trkpt>
   <trkpt lat="57.923529" lon="-4.693362">
    <ele>148</ele>
    <time>2021-11-27T16:41:53+01:00</time>
   </trkpt>
   <trkpt lat="57.923309" lon="-4.689865">
    <ele>151</ele>
    <time>2021-11-27T16:41:58+01:00</time>
   </trkpt>
   <trkpt lat="57.922427" lon="-4.686368">
    <ele>148</ele>
    <time>2021-11-27T16:42:03+01:00</time>
   </trkpt>
   <trkpt lat="57.921743" lon="-4.682622">
    <ele>147</ele>
    <time>2021-11-27T16:42:08+01:00</time>
   </trkpt>
   <trkpt lat="57.920464" lon="-4.679622">
    <ele>141</ele>
    <time>2021-11-27T16:42:13+01:00</time>
   </trkpt>
   <trkpt lat="57.918469" lon="-4.673188">
    <ele>143</ele>
    <time>2021-11-27T16:42:18+01:00</time>
   </trkpt>
   <trkpt lat="57.916975" lon="-4.670469">
    <ele>140</ele>
    <time>2021-11-27T16:42:23+01:00</time>
   </trkpt>
   <trkpt lat="57.915481" lon="-4.668373">
    <ele>137</ele>
    <time>2021-11-27T16:42:28+01:00</time>
   </trkpt>
   <trkpt lat="57.910942" lon="-4.662649">
    <ele>140</ele>
    <time>2021-11-27T16:42:33+01:00</time>
   </trkpt>
   <trkpt lat="57.908904" lon="-4.658729">
    <ele>142</ele>
    <time>2021-11-27T16:42:38+01:00</time>
   </trkpt>
   <trkpt lat="57.907461" lon="-4.654436">
    <ele>142</ele>
    <time>2021-11-27T16:42:43+01:00</time>
   </trkpt>
   <trkpt lat="57.905290" lon="-4.651356">
    <ele>141</ele>
    <time>2021-11-27T16:42:48+01:00</time>
   </trkpt>
   <trkpt lat="57.903874" lon="-4.649941">
    <ele>136</ele>
    <time>2021-11-27T16:42:53+01:00</time>
   </trkpt>
   <trkpt lat="57.903516" lon="-4.646907">
    <ele>140</ele>
    <time>2021-11-27T16:42:58+01:00</time>
   </trkpt>
   <trkpt lat="57.900298" lon="-4.639254">
    <ele>140</ele>
    <time>2021-11-27T16:43:03+01:00</time>
   </trkpt>
   <trkpt lat="57.898391" lon="-4.635023">
    <ele>136</ele>
    <time>2021-11-27T16:43:08+01:00</time>
   </trkpt>
   <trkpt lat="57.896286" lon="-4.632286">
    <ele>140</ele>
    <time>2021-11-27T16:43:13+01:00</time>
   </trkpt>
   <trkpt lat="57.892274" lon="-4.625317">
    <ele>135</ele>
    <time>2021-11-27T16:43:18+01:00</time>
   </trkpt>
   <trkpt lat="57.890300" lon="-4.621802">
    <ele>132</ele>
    <time>2021-11-27T16:43:23+01:00</time>
   </trkpt>
   <trkpt lat="57.888261" lon="-4.619033">
    <ele>133</ele>
    <time>2021-11-27T16:43:28+01:00</time>
   </trkpt>
   <trkpt lat="57.886552" lon="-4.614771">
    <ele>131</ele>
    <time>2021-11-27T16:43:33+01:00</time>
   </trkpt>
   <trkpt lat="57.885505" lon="-4.609264">
    <ele>117</ele>
    <time>2021-11-27T16:43:38+01:00</time>
   </trkpt>
   <trkpt lat="57.886198" lon="-4.605302">
    <ele>117</ele>
    <time>2021-11-27T16:43:43+01:00</time>
   </trkpt>
   <trkpt lat="57.886163" lon="-4.600718">
    <ele>118</ele>
    <time>2021-11-27T16:43:48+01:00</time>
   </trkpt>
   <trkpt lat="57.883712" lon="-4.592795">
    <ele>112</ele>
    <time>2021-11-27T16:43:53+01:00</time>
   </trkpt>
   <trkpt lat="57.881889" lon="-4.585370">
    <ele>111</ele>
    <time>2021-11-27T16:43:58+01:00</time>
   </trkpt>
   <trkpt lat="57.880944" lon="-4.581222">
    <ele>108</ele>
    <time>2021-11-27T16:44:03+01:00</time>
   </trkpt>
   <trkpt lat="57.880968" lon="-4.578712">
    <ele>108</ele>
    <time>2021-11-27T16:44:08+01:00</time>
   </trkpt>
   <trkpt lat="57.881323" lon="-4.576451">
    <ele>107</ele>
    <time>2021-11-27T16:44:13+01:00</time>
   </trkpt>
   <trkpt lat="57.880652" lon="-4.575378">
    <ele>107</ele>
    <time>2021-11-27T16:44:18+01:00</time>
   </trkpt>
   <trkpt lat="57.879452" lon="-4.575425">
    <ele>111</ele>
    <time>2021-11-27T16:44:23+01:00</time>
   </trkpt>
   <trkpt lat="57.877383" lon="-4.576017">
    <ele>113</ele>
    <time>2021-11-27T16:44:28+01:00</time>
   </trkpt>
   <trkpt lat="57.873243" lon="-4.578446">
    <ele>111</ele>
    <time>2021-11-27T16:44:33+01:00</time>
   </trkpt>
   <trkpt lat="57.870859" lon="-4.580065">
    <ele>112</ele>
    <time>2021-11-27T16:44:38+01:00</time>
   </trkpt>
   <trkpt lat="57.869402" lon="-4.582929">
    <ele>119</ele>
    <time>2021-11-27T16:44:43+01:00</time>
   </trkpt>
   <trkpt lat="57.865427" lon="-4.586789">
    <ele>126</ele>
    <time>2021-11-27T16:44:48+01:00</time>
   </trkpt>
   <trkpt lat="57.860533" lon="-4.588163">
    <ele>146</ele>
    <time>2021-11-27T16:44:53+01:00</time>
   </trkpt>
   <trkpt lat="57.858085" lon="-4.589161">
    <ele>148</ele>
    <time>2021-11-27T16:44:58+01:00</time>
   </trkpt>
   <trkpt lat="57.855637" lon="-4.588852">
    <ele>149</ele>
    <time>2021-11-27T16:45:03+01:00</time>
   </trkpt>
   <trkpt lat="57.850742" lon="-4.587425">
    <ele>165</ele>
    <time>2021-11-27T16:45:08+01:00</time>
   </trkpt>
   <trkpt lat="57.846177" lon="-4.584815">
    <ele>179</ele>
    <time>2021-11-27T16:45:13+01:00</time>
   </trkpt>
   <trkpt lat="57.837641" lon="-4.577542">
    <ele>228</ele>
    <time>2021-11-27T16:45:18+01:00</time>
   </trkpt>
   <trkpt lat="57.833306" lon="-4.574030">
    <ele>247</ele>
    <time>2021-11-27T16:45:23+01:00</time>
   </trkpt>
   <trkpt lat="57.830708" lon="-4.575012">
    <ele>249</ele>
    <time>2021-11-27T16:45:28+01:00</time>
   </trkpt>
   <trkpt lat="57.828109" lon="-4.573754">
    <ele>282</ele>
    <time>2021-11-27T16:45:33+01:00</time>
   </trkpt>
   <trkpt lat="57.828395" lon="-4.570422">
    <ele>295</ele>
    <time>2021-11-27T16:45:38+01:00</time>
   </trkpt>
   <trkpt lat="57.829742" lon="-4.568085">
    <ele>308</ele>
    <time>2021-11-27T16:45:43+01:00</time>
   </trkpt>
   <trkpt lat="57.831374" lon="-4.562416">
    <ele>337</ele>
    <time>2021-11-27T16:45:48+01:00</time>
   </trkpt>
   <trkpt lat="57.833868" lon="-4.558055">
    <ele>367</ele>
    <time>2021-11-27T16:45:53+01:00</time>
   </trkpt>
   <trkpt lat="57.834949" lon="-4.555438">
    <ele>378</ele>
    <time>2021-11-27T16:45:58+01:00</time>
   </trkpt>
   <trkpt lat="57.835556" lon="-4.553881">
    <ele>383</ele>
    <time>2021-11-27T16:46:03+01:00</time>
   </trkpt>
   <trkpt lat="57.835566" lon="-4.552324">
    <ele>388</ele>
    <time>2021-11-27T16:46:08+01:00</time>
   </trkpt>
   <trkpt lat="57.836016" lon="-4.550673">
    <ele>403</ele>
    <time>2021-11-27T16:46:13+01:00</time>
   </trkpt>
   <trkpt lat="57.835935" lon="-4.548898">
    <ele>413</ele>
    <time>2021-11-27T16:46:18+01:00</time>
   </trkpt>
   <trkpt lat="57.835641" lon="-4.545721">
    <ele>429</ele>
    <time>2021-11-27T16:46:23+01:00</time>
   </trkpt>
   <trkpt lat="57.836374" lon="-4.542669">
    <ele>438</ele>
    <time>2021-11-27T16:46:28+01:00</time>
   </trkpt>
   <trkpt lat="57.837571" lon="-4.540488">
    <ele>433</ele>
    <time>2021-11-27T16:46:33+01:00</time>
   </trkpt>
   <trkpt lat="57.838039" lon="-4.537467">
    <ele>424</ele>
    <time>2021-11-27T16:46:38+01:00</time>
   </trkpt>
   <trkpt lat="57.837646" lon="-4.534197">
    <ele>419</ele>
    <time>2021-11-27T16:46:43+01:00</time>
   </trkpt>
   <trkpt lat="57.837120" lon="-4.531176">
    <ele>415</ele>
    <time>2021-11-27T16:46:48+01:00</time>
   </trkpt>
   <trkpt lat="57.837323" lon="-4.527905">
    <ele>392</ele>
    <time>2021-11-27T16:46:53+01:00</time>
   </trkpt>
   <trkpt lat="57.834133" lon="-4.519733">
    <ele>407</ele>
    <time>2021-11-27T16:46:58+01:00</time>
   </trkpt>
   <trkpt lat="57.832704" lon="-4.515211">
    <ele>413</ele>
    <time>2021-11-27T16:47:03+01:00</time>
   </trkpt>
   <trkpt lat="57.831474" lon="-4.510315">
    <ele>412</ele>
    <time>2021-11-27T16:47:08+01:00</time>
   </trkpt>
   <trkpt lat="57.830177" lon="-4.504798">
    <ele>419</ele>
    <time>2021-11-27T16:47:13+01:00</time>
   </trkpt>
   <trkpt lat="57.827554" lon="-4.500774">
    <ele>418</ele>
    <time>2021-11-27T16:47:18+01:00</time>
   </trkpt>
   <trkpt lat="57.824865" lon="-4.497434">
    <ele>410</ele>
    <time>2021-11-27T16:47:23+01:00</time>
   </trkpt>
   <trkpt lat="57.823090" lon="-4.496698">
    <ele>409</ele>
    <time>2021-11-27T16:47:28+01:00</time>
   </trkpt>
   <trkpt lat="57.821314" lon="-4.497705">
    <ele>410</ele>
    <time>2021-11-27T16:47:33+01:00</time>
   </trkpt>
   <trkpt lat="57.818733" lon="-4.495299">
    <ele>412</ele>
    <time>2021-11-27T16:47:38+01:00</time>
   </trkpt>
   <trkpt lat="57.816748" lon="-4.489657">
    <ele>393</ele>
    <time>2021-11-27T16:47:43+01:00</time>
   </trkpt>
   <trkpt lat="57.813175" lon="-4.479741">
    <ele>374</ele>
    <time>2021-11-27T16:47:48+01:00</time>
   </trkpt>
   <trkpt lat="57.809801" lon="-4.469702">
    <ele>369</ele>
    <time>2021-11-27T16:47:53+01:00</time>
   </trkpt>
   <trkpt lat="57.807251" lon="-4.466860">
    <ele>356</ele>
    <time>2021-11-27T16:47:58+01:00</time>
   </trkpt>
   <trkpt lat="57.805365" lon="-4.461156">
    <ele>341</ele>
    <time>2021-11-27T16:48:03+01:00</time>
   </trkpt>
   <trkpt lat="57.805282" lon="-4.458337">
    <ele>341</ele>
    <time>2021-11-27T16:48:08+01:00</time>
   </trkpt>
   <trkpt lat="57.804469" lon="-4.455767">
    <ele>334</ele>
    <time>2021-11-27T16:48:13+01:00</time>
   </trkpt>
   <trkpt lat="57.803042" lon="-4.451125">
    <ele>324</ele>
    <time>2021-11-27T16:48:18+01:00</time>
   </trkpt>
   <trkpt lat="57.802278" lon="-4.445674">
    <ele>327</ele>
    <time>2021-11-27T16:48:23+01:00</time>
   </trkpt>
   <trkpt lat="57.800719" lon="-4.441094">
    <ele>323</ele>
    <time>2021-11-27T16:48:28+01:00</time>
   </trkpt>
   <trkpt lat="57.797102" lon="-4.432744">
    <ele>297</ele>
    <time>2021-11-27T16:48:33+01:00</time>
   </trkpt>
   <trkpt lat="57.795210" lon="-4.429160">
    <ele>286</ele>
    <time>2021-11-27T16:48:38+01:00</time>
   </trkpt>
   <trkpt lat="57.793717" lon="-4.424830">
    <ele>282</ele>
    <time>2021-11-27T16:48:43+01:00</time>
   </trkpt>
   <trkpt lat="57.787883" lon="-4.417564">
    <ele>267</ele>
    <time>2021-11-27T16:48:48+01:00</time>
   </trkpt>
   <trkpt lat="57.780920" lon="-4.417145">
    <ele>252</ele>
    <time>2021-11-27T16:48:53+01:00</time>
   </trkpt>
   <trkpt lat="57.779245" lon="-4.418783">
    <ele>239</ele>
    <time>2021-11-27T16:48:58+01:00</time>
   </trkpt>
   <trkpt lat="57.777504" lon="-4.418803">
    <ele>238</ele>
    <time>2021-11-27T16:49:03+01:00</time>
   </trkpt>
   <trkpt lat="57.774022" lon="-4.416477">
    <ele>218</ele>
    <time>2021-11-27T16:49:08+01:00</time>
   </trkpt>
   <trkpt lat="57.767985" lon="-4.408340">
    <ele>194</ele>
    <time>2021-11-27T16:49:13+01:00</time>
   </trkpt>
   <trkpt lat="57.764891" lon="-4.404800">
    <ele>187</ele>
    <time>2021-11-27T16:49:18+01:00</time>
   </trkpt>
   <trkpt lat="57.762194" lon="-4.398770">
    <ele>193</ele>
    <time>2021-11-27T16:49:23+01:00</time>
   </trkpt>
   <trkpt lat="57.757664" lon="-4.386959">
    <ele>186</ele>
    <time>2021-11-27T16:49:28+01:00</time>
   </trkpt>
   <trkpt lat="57.754951" lon="-4.382081">
    <ele>176</ele>
    <time>2021-11-27T16:49:33+01:00</time>
   </trkpt>
   <trkpt lat="57.751772" lon="-4.378323">
    <ele>173</ele>
    <time>2021-11-27T16:49:38+01:00</time>
   </trkpt>
   <trkpt lat="57.748327" lon="-4.373694">
    <ele>172</ele>
    <time>2021-11-27T16:49:43+01:00</time>
   </trkpt>
   <trkpt lat="57.744185" lon="-4.371056">
    <ele>186</ele>
    <time>2021-11-27T16:49:48+01:00</time>
   </trkpt>
   <trkpt lat="57.737363" lon="-4.325130">
    <ele>178</ele>
    <time>2021-11-27T16:49:53+01:00</time>
   </trkpt>
   <trkpt lat="57.735996" lon="-4.320074">
    <ele>190</ele>
    <time>2021-11-27T16:49:58+01:00</time>
   </trkpt>
   <trkpt lat="57.735160" lon="-4.314022">
    <ele>177</ele>
    <time>2021-11-27T16:50:03+01:00</time>
   </trkpt>
   <trkpt lat="57.733421" lon="-4.301793">
    <ele>174</ele>
    <time>2021-11-27T16:50:08+01:00</time>
   </trkpt>
   <trkpt lat="57.732568" lon="-4.295866">
    <ele>168</ele>
    <time>2021-11-27T16:50:13+01:00</time>
   </trkpt>
   <trkpt lat="57.732241" lon="-4.292840">
    <ele>165</ele>
    <time>2021-11-27T16:50:18+01:00</time>
   </trkpt>
   <trkpt lat="57.732380" lon="-4.289938">
    <ele>161</ele>
    <time>2021-11-27T16:50:23+01:00</time>
   </trkpt>
   <trkpt lat="57.732003" lon="-4.277959">
    <ele>142</ele>
    <time>2021-11-27T16:50:28+01:00</time>
   </trkpt>
  </trkseg>
 </trk></gpx>